sensor_id;sensor_type;location;lat;lon;timestamp;temperature;humidity
54126;DHT22;40360;52.992;6.796;2023-12-28T00:01:30;9.10;99.90
54126;DHT22;40360;52.992;6.796;2023-12-28T00:03:55;9.20;99.90
54126;DHT22;40360;52.992;6.796;2023-12-28T00:06:21;9.20;99.90
54126;DHT22;40360;52.992;6.796;2023-12-28T00:08:47;9.20;99.90
54126;DHT22;40360;52.992;6.796;2023-12-28T00:11:14;9.20;99.90
54126;DHT22;40360;52.992;6.796;2023-12-28T00:13:39;9.30;99.90
54126;DHT22;40360;52.992;6.796;2023-12-28T00:16:05;9.30;99.90
54126;DHT22;40360;52.992;6.796;2023-12-28T00:18:31;9.40;99.90
54126;DHT22;40360;52.992;6.796;2023-12-28T00:20:57;9.40;99.90
54126;DHT22;40360;52.992;6.796;2023-12-28T00:23:24;9.50;99.90
54126;DHT22;40360;52.992;6.796;2023-12-28T00:25:53;9.50;99.90
54126;DHT22;40360;52.992;6.796;2023-12-28T00:28:22;9.50;99.90
54126;DHT22;40360;52.992;6.796;2023-12-28T00:30:47;9.50;99.90
54126;DHT22;40360;52.992;6.796;2023-12-28T00:33:13;9.50;99.90
54126;DHT22;40360;52.992;6.796;2023-12-28T00:35:38;9.60;99.90
54126;DHT22;40360;52.992;6.796;2023-12-28T00:38:04;9.60;99.90
54126;DHT22;40360;52.992;6.796;2023-12-28T00:40:30;9.60;99.90
54126;DHT22;40360;52.992;6.796;2023-12-28T00:42:56;9.60;99.90
54126;DHT22;40360;52.992;6.796;2023-12-28T00:45:21;9.70;99.90
54126;DHT22;40360;52.992;6.796;2023-12-28T00:47:49;9.70;99.90
54126;DHT22;40360;52.992;6.796;2023-12-28T00:50:22;9.80;99.90
54126;DHT22;40360;52.992;6.796;2023-12-28T00:52:52;9.70;99.90
54126;DHT22;40360;52.992;6.796;2023-12-28T00:55:20;9.80;99.90
54126;DHT22;40360;52.992;6.796;2023-12-28T00:57:45;9.70;99.90
54126;DHT22;40360;52.992;6.796;2023-12-28T01:00:11;9.70;99.90
54126;DHT22;40360;52.992;6.796;2023-12-28T01:02:37;9.80;99.90
54126;DHT22;40360;52.992;6.796;2023-12-28T01:05:03;9.70;99.90
54126;DHT22;40360;52.992;6.796;2023-12-28T01:07:29;9.80;99.90
54126;DHT22;40360;52.992;6.796;2023-12-28T01:09:55;9.70;99.90
54126;DHT22;40360;52.992;6.796;2023-12-28T01:12:22;9.70;99.90
54126;DHT22;40360;52.992;6.796;2023-12-28T01:14:49;9.70;99.90
54126;DHT22;40360;52.992;6.796;2023-12-28T01:17:15;9.70;99.90
54126;DHT22;40360;52.992;6.796;2023-12-28T01:19:44;9.70;99.90
54126;DHT22;40360;52.992;6.796;2023-12-28T01:22:09;9.70;99.90
54126;DHT22;40360;52.992;6.796;2023-12-28T01:24:35;9.70;99.90
54126;DHT22;40360;52.992;6.796;2023-12-28T01:27:00;9.70;99.90
54126;DHT22;40360;52.992;6.796;2023-12-28T01:29:27;9.70;99.90
54126;DHT22;40360;52.992;6.796;2023-12-28T01:31:53;9.60;99.90
54126;DHT22;40360;52.992;6.796;2023-12-28T01:34:19;9.60;99.90
54126;DHT22;40360;52.992;6.796;2023-12-28T01:36:45;9.60;99.90
54126;DHT22;40360;52.992;6.796;2023-12-28T01:39:10;9.60;99.90
54126;DHT22;40360;52.992;6.796;2023-12-28T01:41:36;9.50;99.90
54126;DHT22;40360;52.992;6.796;2023-12-28T01:44:02;9.50;99.90
54126;DHT22;40360;52.992;6.796;2023-12-28T01:46:28;9.50;99.90
54126;DHT22;40360;52.992;6.796;2023-12-28T01:48:55;9.50;99.90
54126;DHT22;40360;52.992;6.796;2023-12-28T01:51:26;9.50;99.90
54126;DHT22;40360;52.992;6.796;2023-12-28T01:53:57;9.40;99.90
54126;DHT22;40360;52.992;6.796;2023-12-28T01:56:23;9.50;99.90
54126;DHT22;40360;52.992;6.796;2023-12-28T01:58:50;9.40;99.90
54126;DHT22;40360;52.992;6.796;2023-12-28T02:01:18;9.40;99.90
54126;DHT22;40360;52.992;6.796;2023-12-28T02:03:45;9.40;99.90
54126;DHT22;40360;52.992;6.796;2023-12-28T02:06:11;9.40;99.90
54126;DHT22;40360;52.992;6.796;2023-12-28T02:08:38;9.40;99.90
54126;DHT22;40360;52.992;6.796;2023-12-28T02:11:04;9.40;99.90
54126;DHT22;40360;52.992;6.796;2023-12-28T02:13:30;9.40;99.90
54126;DHT22;40360;52.992;6.796;2023-12-28T02:16:06;9.40;99.90
54126;DHT22;40360;52.992;6.796;2023-12-28T02:18:39;9.40;99.90
54126;DHT22;40360;52.992;6.796;2023-12-28T02:21:08;9.40;99.90
54126;DHT22;40360;52.992;6.796;2023-12-28T02:23:34;9.40;99.90
54126;DHT22;40360;52.992;6.796;2023-12-28T02:26:00;9.40;99.90
54126;DHT22;40360;52.992;6.796;2023-12-28T02:28:26;9.50;99.90
54126;DHT22;40360;52.992;6.796;2023-12-28T02:30:52;9.40;99.90
54126;DHT22;40360;52.992;6.796;2023-12-28T02:33:33;9.40;99.90
54126;DHT22;40360;52.992;6.796;2023-12-28T02:36:10;9.50;99.90
54126;DHT22;40360;52.992;6.796;2023-12-28T02:38:38;9.50;99.90
54126;DHT22;40360;52.992;6.796;2023-12-28T02:41:05;9.50;99.90
54126;DHT22;40360;52.992;6.796;2023-12-28T02:43:31;9.40;99.90
54126;DHT22;40360;52.992;6.796;2023-12-28T02:45:58;9.50;99.90
54126;DHT22;40360;52.992;6.796;2023-12-28T02:48:24;9.40;99.90
54126;DHT22;40360;52.992;6.796;2023-12-28T02:50:51;9.40;99.90
54126;DHT22;40360;52.992;6.796;2023-12-28T02:53:17;9.40;99.90
54126;DHT22;40360;52.992;6.796;2023-12-28T02:55:42;9.40;99.90
54126;DHT22;40360;52.992;6.796;2023-12-28T02:58:08;9.40;99.90
54126;DHT22;40360;52.992;6.796;2023-12-28T03:00:35;9.40;99.90
54126;DHT22;40360;52.992;6.796;2023-12-28T03:03:01;9.40;99.90
54126;DHT22;40360;52.992;6.796;2023-12-28T03:05:27;9.40;99.90
54126;DHT22;40360;52.992;6.796;2023-12-28T03:07:54;9.40;99.90
54126;DHT22;40360;52.992;6.796;2023-12-28T03:10:24;9.50;99.90
54126;DHT22;40360;52.992;6.796;2023-12-28T03:12:51;9.50;99.90
54126;DHT22;40360;52.992;6.796;2023-12-28T03:15:22;9.60;99.90
54126;DHT22;40360;52.992;6.796;2023-12-28T03:17:55;9.60;99.90
54126;DHT22;40360;52.992;6.796;2023-12-28T03:20:24;9.70;99.90
54126;DHT22;40360;52.992;6.796;2023-12-28T03:22:56;9.70;99.90
54126;DHT22;40360;52.992;6.796;2023-12-28T03:25:22;9.70;99.90
54126;DHT22;40360;52.992;6.796;2023-12-28T03:27:47;9.70;99.90
54126;DHT22;40360;52.992;6.796;2023-12-28T03:30:13;9.70;99.90
54126;DHT22;40360;52.992;6.796;2023-12-28T03:32:39;9.70;99.90
54126;DHT22;40360;52.992;6.796;2023-12-28T03:35:05;9.80;99.90
54126;DHT22;40360;52.992;6.796;2023-12-28T03:37:33;9.80;99.90
54126;DHT22;40360;52.992;6.796;2023-12-28T03:40:01;9.80;99.90
54126;DHT22;40360;52.992;6.796;2023-12-28T03:42:26;9.80;99.90
54126;DHT22;40360;52.992;6.796;2023-12-28T03:44:52;9.80;99.90
54126;DHT22;40360;52.992;6.796;2023-12-28T03:47:18;9.90;99.90
54126;DHT22;40360;52.992;6.796;2023-12-28T03:49:43;10.00;99.90
54126;DHT22;40360;52.992;6.796;2023-12-28T03:52:09;10.00;99.90
54126;DHT22;40360;52.992;6.796;2023-12-28T03:54:35;10.00;99.90
54126;DHT22;40360;52.992;6.796;2023-12-28T03:57:04;10.00;99.90
54126;DHT22;40360;52.992;6.796;2023-12-28T03:59:31;10.10;99.90
54126;DHT22;40360;52.992;6.796;2023-12-28T04:01:57;10.10;99.90
54126;DHT22;40360;52.992;6.796;2023-12-28T04:04:23;10.10;99.90
54126;DHT22;40360;52.992;6.796;2023-12-28T04:06:48;10.10;99.90
54126;DHT22;40360;52.992;6.796;2023-12-28T04:09:14;10.20;99.90
54126;DHT22;40360;52.992;6.796;2023-12-28T04:11:40;10.10;99.90
54126;DHT22;40360;52.992;6.796;2023-12-28T04:14:06;10.10;99.90
54126;DHT22;40360;52.992;6.796;2023-12-28T04:16:32;10.10;99.90
54126;DHT22;40360;52.992;6.796;2023-12-28T04:19:00;10.20;99.90
54126;DHT22;40360;52.992;6.796;2023-12-28T04:21:26;10.20;99.90
54126;DHT22;40360;52.992;6.796;2023-12-28T04:23:58;10.30;99.90
54126;DHT22;40360;52.992;6.796;2023-12-28T04:26:23;10.30;99.90
54126;DHT22;40360;52.992;6.796;2023-12-28T04:28:49;10.40;99.90
54126;DHT22;40360;52.992;6.796;2023-12-28T04:31:15;10.30;99.90
54126;DHT22;40360;52.992;6.796;2023-12-28T04:33:40;10.40;99.90
54126;DHT22;40360;52.992;6.796;2023-12-28T04:36:06;10.40;99.90
54126;DHT22;40360;52.992;6.796;2023-12-28T04:38:32;10.30;99.90
54126;DHT22;40360;52.992;6.796;2023-12-28T04:40:59;10.40;99.90
54126;DHT22;40360;52.992;6.796;2023-12-28T04:43:26;10.40;99.90
54126;DHT22;40360;52.992;6.796;2023-12-28T04:45:55;10.40;99.90
54126;DHT22;40360;52.992;6.796;2023-12-28T04:48:26;10.50;99.90
54126;DHT22;40360;52.992;6.796;2023-12-28T04:50:52;10.50;99.90
54126;DHT22;40360;52.992;6.796;2023-12-28T04:53:18;10.50;99.90
54126;DHT22;40360;52.992;6.796;2023-12-28T04:55:44;10.50;99.90
54126;DHT22;40360;52.992;6.796;2023-12-28T04:58:13;10.50;99.90
54126;DHT22;40360;52.992;6.796;2023-12-28T05:00:39;10.50;99.90
54126;DHT22;40360;52.992;6.796;2023-12-28T05:03:05;10.50;99.90
54126;DHT22;40360;52.992;6.796;2023-12-28T05:05:32;10.50;99.90
54126;DHT22;40360;52.992;6.796;2023-12-28T05:07:59;10.60;99.90
54126;DHT22;40360;52.992;6.796;2023-12-28T05:10:25;10.70;99.90
54126;DHT22;40360;52.992;6.796;2023-12-28T05:12:51;10.70;99.90
54126;DHT22;40360;52.992;6.796;2023-12-28T05:15:16;10.70;99.90
54126;DHT22;40360;52.992;6.796;2023-12-28T05:17:44;10.70;99.90
54126;DHT22;40360;52.992;6.796;2023-12-28T05:20:10;10.80;99.90
54126;DHT22;40360;52.992;6.796;2023-12-28T05:22:36;10.90;99.90
54126;DHT22;40360;52.992;6.796;2023-12-28T05:25:02;10.80;99.90
54126;DHT22;40360;52.992;6.796;2023-12-28T05:27:27;10.80;99.90
54126;DHT22;40360;52.992;6.796;2023-12-28T05:29:53;10.90;99.90
54126;DHT22;40360;52.992;6.796;2023-12-28T05:32:19;10.80;99.90
54126;DHT22;40360;52.992;6.796;2023-12-28T05:34:45;10.90;99.90
54126;DHT22;40360;52.992;6.796;2023-12-28T05:37:10;10.90;99.90
54126;DHT22;40360;52.992;6.796;2023-12-28T05:39:36;10.90;99.90
54126;DHT22;40360;52.992;6.796;2023-12-28T05:42:02;10.90;99.90
54126;DHT22;40360;52.992;6.796;2023-12-28T05:44:28;10.90;99.90
54126;DHT22;40360;52.992;6.796;2023-12-28T05:46:55;10.90;99.90
54126;DHT22;40360;52.992;6.796;2023-12-28T05:49:23;11.00;99.90
54126;DHT22;40360;52.992;6.796;2023-12-28T05:51:50;11.00;99.90
54126;DHT22;40360;52.992;6.796;2023-12-28T05:54:16;11.00;99.90
54126;DHT22;40360;52.992;6.796;2023-12-28T05:56:41;11.00;99.90
54126;DHT22;40360;52.992;6.796;2023-12-28T05:59:07;11.10;99.90
54126;DHT22;40360;52.992;6.796;2023-12-28T06:01:41;11.10;99.90
54126;DHT22;40360;52.992;6.796;2023-12-28T06:04:08;11.20;99.90
54126;DHT22;40360;52.992;6.796;2023-12-28T06:06:34;11.20;99.90
54126;DHT22;40360;52.992;6.796;2023-12-28T06:09:12;11.20;99.90
54126;DHT22;40360;52.992;6.796;2023-12-28T06:11:39;11.20;99.90
54126;DHT22;40360;52.992;6.796;2023-12-28T06:14:05;11.10;99.90
54126;DHT22;40360;52.992;6.796;2023-12-28T06:16:30;11.10;99.90
54126;DHT22;40360;52.992;6.796;2023-12-28T06:18:58;11.20;99.90
54126;DHT22;40360;52.992;6.796;2023-12-28T06:21:24;11.20;99.90
54126;DHT22;40360;52.992;6.796;2023-12-28T06:23:50;11.20;99.90
54126;DHT22;40360;52.992;6.796;2023-12-28T06:26:16;11.10;99.90
54126;DHT22;40360;52.992;6.796;2023-12-28T06:28:45;11.10;99.90
54126;DHT22;40360;52.992;6.796;2023-12-28T06:31:16;11.10;99.90
54126;DHT22;40360;52.992;6.796;2023-12-28T06:33:47;11.10;99.90
54126;DHT22;40360;52.992;6.796;2023-12-28T06:36:17;11.10;99.90
54126;DHT22;40360;52.992;6.796;2023-12-28T06:38:43;11.10;99.90
54126;DHT22;40360;52.992;6.796;2023-12-28T06:41:12;11.10;99.90
54126;DHT22;40360;52.992;6.796;2023-12-28T06:43:38;11.10;99.90
54126;DHT22;40360;52.992;6.796;2023-12-28T06:46:04;11.10;99.90
54126;DHT22;40360;52.992;6.796;2023-12-28T06:48:30;11.00;99.90
54126;DHT22;40360;52.992;6.796;2023-12-28T06:50:56;11.10;99.90
54126;DHT22;40360;52.992;6.796;2023-12-28T06:53:22;11.10;99.90
54126;DHT22;40360;52.992;6.796;2023-12-28T06:55:52;11.00;99.90
54126;DHT22;40360;52.992;6.796;2023-12-28T06:58:18;11.10;99.90
54126;DHT22;40360;52.992;6.796;2023-12-28T07:00:44;11.10;99.90
54126;DHT22;40360;52.992;6.796;2023-12-28T07:03:10;11.10;99.90
54126;DHT22;40360;52.992;6.796;2023-12-28T07:22:47;11.10;99.90
54126;DHT22;40360;52.992;6.796;2023-12-28T07:25:13;11.10;99.90
54126;DHT22;40360;52.992;6.796;2023-12-28T07:27:39;11.10;99.90
54126;DHT22;40360;52.992;6.796;2023-12-28T07:30:05;11.10;99.90
54126;DHT22;40360;52.992;6.796;2023-12-28T07:32:35;11.20;99.90
54126;DHT22;40360;52.992;6.796;2023-12-28T07:35:01;11.10;99.90
54126;DHT22;40360;52.992;6.796;2023-12-28T07:37:26;11.10;99.90
54126;DHT22;40360;52.992;6.796;2023-12-28T07:39:52;11.20;99.90
54126;DHT22;40360;52.992;6.796;2023-12-28T07:42:18;11.20;99.90
54126;DHT22;40360;52.992;6.796;2023-12-28T07:44:44;11.20;99.90
54126;DHT22;40360;52.992;6.796;2023-12-28T07:47:10;11.20;99.90
54126;DHT22;40360;52.992;6.796;2023-12-28T07:49:37;11.30;99.90
54126;DHT22;40360;52.992;6.796;2023-12-28T07:52:03;11.20;99.90
54126;DHT22;40360;52.992;6.796;2023-12-28T07:54:29;11.20;99.90
54126;DHT22;40360;52.992;6.796;2023-12-28T07:56:55;11.20;99.90
54126;DHT22;40360;52.992;6.796;2023-12-28T07:59:21;11.20;99.90
54126;DHT22;40360;52.992;6.796;2023-12-28T08:01:46;11.20;99.90
54126;DHT22;40360;52.992;6.796;2023-12-28T08:04:12;11.10;99.90
54126;DHT22;40360;52.992;6.796;2023-12-28T08:06:38;11.20;99.90
54126;DHT22;40360;52.992;6.796;2023-12-28T08:09:04;11.10;99.90
54126;DHT22;40360;52.992;6.796;2023-12-28T08:11:30;11.10;99.90
54126;DHT22;40360;52.992;6.796;2023-12-28T08:13:56;11.10;99.90
54126;DHT22;40360;52.992;6.796;2023-12-28T08:16:22;11.10;99.90
54126;DHT22;40360;52.992;6.796;2023-12-28T08:18:47;11.20;99.90
54126;DHT22;40360;52.992;6.796;2023-12-28T08:21:13;11.20;99.90
54126;DHT22;40360;52.992;6.796;2023-12-28T08:23:39;11.20;99.90
54126;DHT22;40360;52.992;6.796;2023-12-28T08:26:05;11.20;99.90
54126;DHT22;40360;52.992;6.796;2023-12-28T08:28:32;11.20;99.90
54126;DHT22;40360;52.992;6.796;2023-12-28T08:30:58;11.20;99.90
54126;DHT22;40360;52.992;6.796;2023-12-28T08:33:24;11.20;99.90
54126;DHT22;40360;52.992;6.796;2023-12-28T08:35:50;11.20;99.90
54126;DHT22;40360;52.992;6.796;2023-12-28T08:38:15;11.20;99.90
54126;DHT22;40360;52.992;6.796;2023-12-28T08:40:42;11.20;99.90
54126;DHT22;40360;52.992;6.796;2023-12-28T08:43:07;11.10;99.90
54126;DHT22;40360;52.992;6.796;2023-12-28T08:45:33;11.20;99.90
54126;DHT22;40360;52.992;6.796;2023-12-28T08:48:01;11.20;99.90
54126;DHT22;40360;52.992;6.796;2023-12-28T08:50:27;11.10;99.90
54126;DHT22;40360;52.992;6.796;2023-12-28T08:52:53;11.10;99.90
54126;DHT22;40360;52.992;6.796;2023-12-28T08:55:19;11.10;99.90
54126;DHT22;40360;52.992;6.796;2023-12-28T08:57:44;11.20;99.90
54126;DHT22;40360;52.992;6.796;2023-12-28T09:00:11;11.30;99.90
54126;DHT22;40360;52.992;6.796;2023-12-28T09:02:37;11.20;99.90
54126;DHT22;40360;52.992;6.796;2023-12-28T09:05:03;11.20;99.90
54126;DHT22;40360;52.992;6.796;2023-12-28T09:07:28;11.20;99.90
54126;DHT22;40360;52.992;6.796;2023-12-28T09:09:54;11.20;99.90
54126;DHT22;40360;52.992;6.796;2023-12-28T09:12:20;11.20;99.90
54126;DHT22;40360;52.992;6.796;2023-12-28T09:14:46;11.20;99.90
54126;DHT22;40360;52.992;6.796;2023-12-28T09:17:12;11.20;99.90
54126;DHT22;40360;52.992;6.796;2023-12-28T09:19:38;11.20;99.90
54126;DHT22;40360;52.992;6.796;2023-12-28T09:22:04;11.10;99.90
54126;DHT22;40360;52.992;6.796;2023-12-28T09:24:29;11.10;99.90
54126;DHT22;40360;52.992;6.796;2023-12-28T09:26:56;11.20;99.90
54126;DHT22;40360;52.992;6.796;2023-12-28T09:29:21;11.20;99.90
54126;DHT22;40360;52.992;6.796;2023-12-28T09:31:47;11.20;99.90
54126;DHT22;40360;52.992;6.796;2023-12-28T09:34:13;11.20;99.90
54126;DHT22;40360;52.992;6.796;2023-12-28T09:36:39;11.10;99.90
54126;DHT22;40360;52.992;6.796;2023-12-28T09:39:05;11.10;99.90
54126;DHT22;40360;52.992;6.796;2023-12-28T09:41:36;11.20;99.90
54126;DHT22;40360;52.992;6.796;2023-12-28T09:44:20;11.30;99.90
54126;DHT22;40360;52.992;6.796;2023-12-28T09:46:47;11.30;99.90
54126;DHT22;40360;52.992;6.796;2023-12-28T09:49:13;11.30;99.90
54126;DHT22;40360;52.992;6.796;2023-12-28T09:51:39;11.30;99.90
54126;DHT22;40360;52.992;6.796;2023-12-28T09:54:05;11.30;99.90
54126;DHT22;40360;52.992;6.796;2023-12-28T09:56:34;11.30;99.90
54126;DHT22;40360;52.992;6.796;2023-12-28T09:59:02;11.40;99.90
54126;DHT22;40360;52.992;6.796;2023-12-28T10:01:29;11.40;99.90
54126;DHT22;40360;52.992;6.796;2023-12-28T10:03:55;11.30;99.90
54126;DHT22;40360;52.992;6.796;2023-12-28T10:06:21;11.40;99.90
54126;DHT22;40360;52.992;6.796;2023-12-28T10:08:47;11.40;99.90
54126;DHT22;40360;52.992;6.796;2023-12-28T10:11:18;11.40;99.90
54126;DHT22;40360;52.992;6.796;2023-12-28T10:13:44;11.40;99.90
54126;DHT22;40360;52.992;6.796;2023-12-28T10:16:14;11.40;99.90
54126;DHT22;40360;52.992;6.796;2023-12-28T10:18:44;11.40;99.90
54126;DHT22;40360;52.992;6.796;2023-12-28T10:21:11;11.40;99.90
54126;DHT22;40360;52.992;6.796;2023-12-28T10:23:38;11.40;99.90
54126;DHT22;40360;52.992;6.796;2023-12-28T10:26:05;11.40;99.90
54126;DHT22;40360;52.992;6.796;2023-12-28T10:28:35;11.40;99.90
54126;DHT22;40360;52.992;6.796;2023-12-28T10:31:03;11.40;99.90
54126;DHT22;40360;52.992;6.796;2023-12-28T10:33:36;11.40;99.90
54126;DHT22;40360;52.992;6.796;2023-12-28T10:36:07;11.40;99.90
54126;DHT22;40360;52.992;6.796;2023-12-28T10:38:37;11.50;99.90
54126;DHT22;40360;52.992;6.796;2023-12-28T10:41:10;11.50;99.90
54126;DHT22;40360;52.992;6.796;2023-12-28T10:43:54;11.50;99.90
54126;DHT22;40360;52.992;6.796;2023-12-28T10:46:26;11.50;99.90
54126;DHT22;40360;52.992;6.796;2023-12-28T10:49:00;11.50;99.90
54126;DHT22;40360;52.992;6.796;2023-12-28T10:51:31;11.50;99.90
54126;DHT22;40360;52.992;6.796;2023-12-28T10:56:47;11.40;99.90
54126;DHT22;40360;52.992;6.796;2023-12-28T11:02:11;11.50;99.90
54126;DHT22;40360;52.992;6.796;2023-12-28T11:04:46;11.50;99.90
54126;DHT22;40360;52.992;6.796;2023-12-28T11:07:15;11.50;99.90
54126;DHT22;40360;52.992;6.796;2023-12-28T11:09:42;11.50;99.90
54126;DHT22;40360;52.992;6.796;2023-12-28T11:12:09;11.50;99.90
54126;DHT22;40360;52.992;6.796;2023-12-28T11:14:42;11.50;99.90
54126;DHT22;40360;52.992;6.796;2023-12-28T11:17:09;11.50;99.90
54126;DHT22;40360;52.992;6.796;2023-12-28T11:19:37;11.50;99.90
54126;DHT22;40360;52.992;6.796;2023-12-28T11:22:03;11.50;99.90
54126;DHT22;40360;52.992;6.796;2023-12-28T11:24:31;11.50;99.90
54126;DHT22;40360;52.992;6.796;2023-12-28T11:26:57;11.40;99.90
54126;DHT22;40360;52.992;6.796;2023-12-28T11:29:24;11.40;99.90
54126;DHT22;40360;52.992;6.796;2023-12-28T11:31:54;11.40;99.90
54126;DHT22;40360;52.992;6.796;2023-12-28T11:34:32;11.40;99.90
54126;DHT22;40360;52.992;6.796;2023-12-28T11:37:12;11.40;99.90
54126;DHT22;40360;52.992;6.796;2023-12-28T11:39:38;11.40;99.90
54126;DHT22;40360;52.992;6.796;2023-12-28T11:42:09;11.40;99.90
54126;DHT22;40360;52.992;6.796;2023-12-28T11:44:43;11.40;99.90
54126;DHT22;40360;52.992;6.796;2023-12-28T11:47:16;11.40;99.90
54126;DHT22;40360;52.992;6.796;2023-12-28T11:49:43;11.40;99.90
54126;DHT22;40360;52.992;6.796;2023-12-28T11:52:23;11.40;99.90
54126;DHT22;40360;52.992;6.796;2023-12-28T11:54:49;11.40;99.90
54126;DHT22;40360;52.992;6.796;2023-12-28T11:57:16;11.30;99.90
54126;DHT22;40360;52.992;6.796;2023-12-28T11:59:42;11.40;99.90
54126;DHT22;40360;52.992;6.796;2023-12-28T12:02:08;11.40;99.90
54126;DHT22;40360;52.992;6.796;2023-12-28T12:04:34;11.40;99.90
54126;DHT22;40360;52.992;6.796;2023-12-28T12:07:04;11.40;99.90
54126;DHT22;40360;52.992;6.796;2023-12-28T12:09:30;11.50;99.90
54126;DHT22;40360;52.992;6.796;2023-12-28T12:12:01;11.40;99.90
54126;DHT22;40360;52.992;6.796;2023-12-28T12:14:27;11.40;99.90
54126;DHT22;40360;52.992;6.796;2023-12-28T12:16:54;11.40;99.90
54126;DHT22;40360;52.992;6.796;2023-12-28T12:19:23;11.40;99.90
54126;DHT22;40360;52.992;6.796;2023-12-28T12:21:49;11.40;99.90
54126;DHT22;40360;52.992;6.796;2023-12-28T12:24:17;11.30;99.90
54126;DHT22;40360;52.992;6.796;2023-12-28T12:26:45;11.30;99.90
54126;DHT22;40360;52.992;6.796;2023-12-28T12:29:11;11.30;99.90
54126;DHT22;40360;52.992;6.796;2023-12-28T12:31:37;11.30;99.90
54126;DHT22;40360;52.992;6.796;2023-12-28T12:34:05;11.30;99.90
54126;DHT22;40360;52.992;6.796;2023-12-28T12:36:31;11.30;99.90
54126;DHT22;40360;52.992;6.796;2023-12-28T12:38:57;11.40;99.90
54126;DHT22;40360;52.992;6.796;2023-12-28T12:41:23;11.40;99.90
54126;DHT22;40360;52.992;6.796;2023-12-28T12:43:48;11.30;99.90
54126;DHT22;40360;52.992;6.796;2023-12-28T12:46:14;11.30;99.90
54126;DHT22;40360;52.992;6.796;2023-12-28T12:48:40;11.30;99.90
54126;DHT22;40360;52.992;6.796;2023-12-28T12:51:06;11.30;99.90
54126;DHT22;40360;52.992;6.796;2023-12-28T12:53:35;11.30;99.90
54126;DHT22;40360;52.992;6.796;2023-12-28T12:56:05;11.30;99.90
54126;DHT22;40360;52.992;6.796;2023-12-28T12:58:33;11.40;99.90
54126;DHT22;40360;52.992;6.796;2023-12-28T13:00:59;11.30;99.90
54126;DHT22;40360;52.992;6.796;2023-12-28T13:03:28;11.30;99.90
54126;DHT22;40360;52.992;6.796;2023-12-28T13:05:56;11.30;99.90
54126;DHT22;40360;52.992;6.796;2023-12-28T13:08:22;11.30;99.90
54126;DHT22;40360;52.992;6.796;2023-12-28T13:10:48;11.30;99.90
54126;DHT22;40360;52.992;6.796;2023-12-28T13:13:15;11.30;99.90
54126;DHT22;40360;52.992;6.796;2023-12-28T13:15:41;11.30;99.90
54126;DHT22;40360;52.992;6.796;2023-12-28T13:18:07;11.30;99.90
54126;DHT22;40360;52.992;6.796;2023-12-28T13:20:33;11.30;99.90
54126;DHT22;40360;52.992;6.796;2023-12-28T13:22:59;11.30;99.90
54126;DHT22;40360;52.992;6.796;2023-12-28T13:25:25;11.20;99.90
54126;DHT22;40360;52.992;6.796;2023-12-28T13:27:50;11.20;99.90
54126;DHT22;40360;52.992;6.796;2023-12-28T13:30:16;11.20;99.90
54126;DHT22;40360;52.992;6.796;2023-12-28T13:32:42;11.20;99.90
54126;DHT22;40360;52.992;6.796;2023-12-28T13:35:08;11.20;99.90
54126;DHT22;40360;52.992;6.796;2023-12-28T13:37:33;11.30;99.90
54126;DHT22;40360;52.992;6.796;2023-12-28T13:39:59;11.20;99.90
54126;DHT22;40360;52.992;6.796;2023-12-28T13:42:25;11.20;99.90
54126;DHT22;40360;52.992;6.796;2023-12-28T13:44:50;11.20;99.90
54126;DHT22;40360;52.992;6.796;2023-12-28T13:47:16;11.20;99.90
54126;DHT22;40360;52.992;6.796;2023-12-28T13:49:42;11.20;99.90
54126;DHT22;40360;52.992;6.796;2023-12-28T13:52:08;11.20;99.90
54126;DHT22;40360;52.992;6.796;2023-12-28T13:54:34;11.20;99.90
54126;DHT22;40360;52.992;6.796;2023-12-28T13:57:00;11.20;99.90
54126;DHT22;40360;52.992;6.796;2023-12-28T13:59:26;11.20;99.90
54126;DHT22;40360;52.992;6.796;2023-12-28T14:01:52;11.20;99.90
54126;DHT22;40360;52.992;6.796;2023-12-28T14:04:17;11.30;99.90
54126;DHT22;40360;52.992;6.796;2023-12-28T14:06:43;11.20;99.90
54126;DHT22;40360;52.992;6.796;2023-12-28T14:09:09;11.20;99.90
54126;DHT22;40360;52.992;6.796;2023-12-28T14:11:34;11.20;99.90
54126;DHT22;40360;52.992;6.796;2023-12-28T14:14:00;11.20;99.90
54126;DHT22;40360;52.992;6.796;2023-12-28T14:16:25;11.20;99.90
54126;DHT22;40360;52.992;6.796;2023-12-28T14:18:51;11.20;99.90
54126;DHT22;40360;52.992;6.796;2023-12-28T14:21:18;11.20;99.90
54126;DHT22;40360;52.992;6.796;2023-12-28T14:23:44;11.30;99.90
54126;DHT22;40360;52.992;6.796;2023-12-28T14:26:15;11.20;99.90
54126;DHT22;40360;52.992;6.796;2023-12-28T14:28:44;11.20;99.90
54126;DHT22;40360;52.992;6.796;2023-12-28T14:31:10;11.20;99.90
54126;DHT22;40360;52.992;6.796;2023-12-28T14:33:37;11.30;99.90
54126;DHT22;40360;52.992;6.796;2023-12-28T14:36:10;11.30;99.90
54126;DHT22;40360;52.992;6.796;2023-12-28T14:38:38;11.30;99.90
54126;DHT22;40360;52.992;6.796;2023-12-28T14:41:03;11.30;99.90
54126;DHT22;40360;52.992;6.796;2023-12-28T14:43:29;11.20;99.90
54126;DHT22;40360;52.992;6.796;2023-12-28T14:45:55;11.30;99.90
54126;DHT22;40360;52.992;6.796;2023-12-28T14:48:21;11.20;99.90
54126;DHT22;40360;52.992;6.796;2023-12-28T14:50:47;11.20;99.90
54126;DHT22;40360;52.992;6.796;2023-12-28T14:53:12;11.20;99.90
54126;DHT22;40360;52.992;6.796;2023-12-28T14:55:38;11.20;99.90
54126;DHT22;40360;52.992;6.796;2023-12-28T14:58:04;11.20;99.90
54126;DHT22;40360;52.992;6.796;2023-12-28T15:00:30;11.20;99.90
54126;DHT22;40360;52.992;6.796;2023-12-28T15:02:55;11.10;99.90
54126;DHT22;40360;52.992;6.796;2023-12-28T15:05:21;11.00;99.90
54126;DHT22;40360;52.992;6.796;2023-12-28T15:07:47;11.00;99.90
54126;DHT22;40360;52.992;6.796;2023-12-28T15:10:14;11.00;99.90
54126;DHT22;40360;52.992;6.796;2023-12-28T15:12:40;11.00;99.90
54126;DHT22;40360;52.992;6.796;2023-12-28T15:15:07;11.00;99.90
54126;DHT22;40360;52.992;6.796;2023-12-28T15:17:36;11.00;99.90
54126;DHT22;40360;52.992;6.796;2023-12-28T15:20:02;11.00;99.90
54126;DHT22;40360;52.992;6.796;2023-12-28T15:22:28;11.00;99.90
54126;DHT22;40360;52.992;6.796;2023-12-28T15:24:54;11.00;99.90
54126;DHT22;40360;52.992;6.796;2023-12-28T15:27:19;11.00;99.90
54126;DHT22;40360;52.992;6.796;2023-12-28T15:29:45;11.00;99.90
54126;DHT22;40360;52.992;6.796;2023-12-28T15:32:11;11.00;99.90
54126;DHT22;40360;52.992;6.796;2023-12-28T15:34:37;11.00;99.90
54126;DHT22;40360;52.992;6.796;2023-12-28T15:37:03;11.00;99.90
54126;DHT22;40360;52.992;6.796;2023-12-28T15:39:29;11.00;99.90
54126;DHT22;40360;52.992;6.796;2023-12-28T15:41:55;10.90;99.90
54126;DHT22;40360;52.992;6.796;2023-12-28T15:44:21;11.00;99.90
54126;DHT22;40360;52.992;6.796;2023-12-28T15:46:47;11.10;99.90
54126;DHT22;40360;52.992;6.796;2023-12-28T15:49:13;11.00;99.90
54126;DHT22;40360;52.992;6.796;2023-12-28T15:51:38;11.00;99.90
54126;DHT22;40360;52.992;6.796;2023-12-28T15:54:04;11.10;99.90
54126;DHT22;40360;52.992;6.796;2023-12-28T15:56:30;11.10;99.90